Buoy 62558

sailwx.info

Track history (hours):
 
Tides and Currents Weather Stations Pressure Air Temp Water Temp Dewpoint Dewpoint Depression Visibility Wind Speed Wind Dir Waves Ship Positions

Min Dong Yu62558

Last reported at 2017-Nov-22 14:00 UTC. Time now 2017-Nov-22 15:06 UTC.
Position N 45°14' W 011°12'.

Length 32 m.

Type: Fishing. MMSI: 412446472.

Water temperature 16.0 ° C

Date/timePositionNaut miles runAvg speedWind from/ knotsBaromVisibWave heightAir tempDewpointWater temp
2017-Nov-22 14:00N 45°14' W 011°12'0 0.4 16.0
2017-Nov-22 13:00N 45°14' W 011°13'1 1.0 16.0
2017-Nov-22 12:00N 45°13' W 011°14'1 0.7 16.0
2017-Nov-22 11:00N 45°13' W 011°14'1 0.7 16.1
2017-Nov-22 10:00N 45°12' W 011°15'1 0.8 16.1
2017-Nov-22 09:00N 45°12' W 011°16'1 0.7 16.1
2017-Nov-22 08:00N 45°11' W 011°17'1 1.3 16.1
2017-Nov-22 07:00N 45°10' W 011°17'1 0.7 16.1
2017-Nov-22 06:00N 45°10' W 011°18'1 1.5 16.0
2017-Nov-22 05:00N 45°08' W 011°19'1 0.7 16.1
2017-Nov-22 04:00N 45°08' W 011°20'1 1.2 16.1
2017-Nov-22 03:00N 45°07' W 011°20'1 1.2 16.2
2017-Nov-22 02:00N 45°05' W 011°20'1 0.7 16.3
2017-Nov-22 01:00N 45°05' W 011°19'1 0.7 16.3
2017-Nov-22 00:00N 45°04' W 011°19'1 0.8 16.2
2017-Nov-21 23:00N 45°04' W 011°17'0 0.0 16.1
2017-Nov-21 22:00N 45°04' W 011°17'0 0.0 16.1
2017-Nov-21 21:00N 45°04' W 011°17'0 0.4 16.1
2017-Nov-21 20:00N 45°04' W 011°18'0 0.4 16.1
2017-Nov-21 19:00N 45°04' W 011°19'1 1.0 16.1
2017-Nov-21 18:00N 45°04' W 011°20'1 1.0 16.1
2017-Nov-21 17:00N 45°03' W 011°21'1 1.3 16.1
2017-Nov-21 16:00N 45°02' W 011°22'1 1.5 16.1
2017-Nov-21 15:00N 45°01' W 011°23'1 1.3 16.2
2017-Nov-21 14:00N 44°59' W 011°23'1 0.6 16.2
2017-Nov-21 13:00N 44°59' W 011°23'1 0.7 16.2
2017-Nov-21 12:00N 44°58' W 011°23'1 0.7 16.2
2017-Nov-21 11:00N 44°58' W 011°22'1 0.6 16.2
2017-Nov-21 10:00N 44°58' W 011°22'0 0.0 16.2
2017-Nov-21 09:00N 44°58' W 011°22'1 0.7 16.2
2017-Nov-21 08:00N 44°59' W 011°23'0 0.4 16.2
2017-Nov-21 07:00N 44°59' W 011°23'0 0.4 16.2
2017-Nov-21 06:00N 44°59' W 011°24'1 1.0 16.1
2017-Nov-21 05:00N 44°58' W 011°25'1 0.7 16.1
2017-Nov-21 04:00N 44°58' W 011°26'1 1.0 16.1
2017-Nov-21 03:00N 44°57' W 011°27'1 0.7 16.1
2017-Nov-21 02:00N 44°56' W 011°28'1 0.7 16.1
2017-Nov-21 01:00N 44°56' W 011°28'1 1.2 16.1
2017-Nov-21 00:00N 44°55' W 011°28'1 0.6 16.1
2017-Nov-20 23:00N 44°54' W 011°28'1 0.6 16.1
2017-Nov-20 22:00N 44°53' W 011°28'0 0.0 16.1
2017-Nov-20 21:00N 44°53' W 011°28'1 0.6 16.1
2017-Nov-20 20:00N 44°53' W 011°28'0 0.0 16.1
2017-Nov-20 19:00N 44°53' W 011°28'0 0.0 16.1
2017-Nov-20 18:00N 44°53' W 011°28'0 0.4 16.1
2017-Nov-20 17:00N 44°53' W 011°29'0 0.4 16.2
2017-Nov-20 16:00N 44°53' W 011°29'1 0.9 16.2
2017-Nov-20 15:00N 44°53' W 011°31'1 0.9 16.0
2017-Nov-20 14:00N 44°53' W 011°32'0 0.4 16.0
2017-Nov-20 13:00N 44°53' W 011°32'1 1.0 16.0
2017-Nov-20 12:00N 44°52' W 011°34'0 0.4 16.0
2017-Nov-20 11:00N 44°52' W 011°34'0 0.4 16.0
2017-Nov-20 10:00N 44°52' W 011°35'0 0.0 16.1
2017-Nov-20 09:00N 44°52' W 011°35'0 0.0 16.1
2017-Nov-20 08:00N 44°52' W 011°35'1 0.6 16.1
2017-Nov-20 07:00N 44°52' W 011°35'0 0.4 16.1
2017-Nov-20 06:00N 44°52' W 011°35'0 0.0 16.1
2017-Nov-20 05:00N 44°52' W 011°35'0 0.0 16.1
2017-Nov-20 04:00N 44°52' W 011°35'0 0.0 16.1
2017-Nov-20 03:00N 44°52' W 011°35'0 0.0 16.1
2017-Nov-20 02:00N 44°52' W 011°35'0 0.0 16.1
2017-Nov-20 01:00N 44°52' W 011°35'0 0.0 16.1
2017-Nov-20 00:00N 44°52' W 011°35'0 0.0 16.1
2017-Nov-19 23:00N 44°52' W 011°35'0 0.0 16.2
2017-Nov-19 22:00N 44°52' W 011°35'1 0.6 16.2
2017-Nov-19 21:00N 44°52' W 011°35'1 0.6 16.2
2017-Nov-19 20:00N 44°53' W 011°35'0 0.0 16.2
2017-Nov-19 19:00N 44°53' W 011°35'1 0.7 16.2
2017-Nov-19 18:00N 44°53' W 011°36'0 0.0 16.2
2017-Nov-19 17:00N 44°53' W 011°36'1 0.7 16.2
2017-Nov-19 16:00N 44°53' W 011°37'0 0.4 16.3
2017-Nov-19 15:00N 44°53' W 011°37'1 0.6 16.3
2017-Nov-19 14:00N 44°52' W 011°37'0 0.0 16.3
2017-Nov-19 13:00N 44°52' W 011°37'1 0.6 16.3
2017-Nov-19 12:00N 44°52' W 011°37'1 0.6 16.3
2017-Nov-19 11:00N 44°51' W 011°37'0 0.4 16.3
2017-Nov-19 10:00N 44°51' W 011°37'1 0.9 16.3
2017-Nov-19 09:00N 44°51' W 011°35'1 0.7 16.3
2017-Nov-19 08:00N 44°52' W 011°35'0 0.0 16.3
2017-Nov-19 07:00N 44°52' W 011°35'1 0.7 16.3
2017-Nov-19 06:00N 44°52' W 011°34'1 0.6 16.3
2017-Nov-19 05:00N 44°53' W 011°34'0 0.4 16.3
2017-Nov-19 04:00N 44°53' W 011°35'1 0.6 16.3
2017-Nov-19 03:00N 44°53' W 011°35'0 0.4 16.3
2017-Nov-19 02:00N 44°53' W 011°35'1 0.7 16.3
2017-Nov-19 01:00N 44°53' W 011°36'0 0.4 16.3
2017-Nov-19 00:00N 44°53' W 011°37'1 0.7 16.3
2017-Nov-18 23:00N 44°52' W 011°37'1 0.6 16.4
2017-Nov-18 22:00N 44°52' W 011°37'0 0.4 16.4
2017-Nov-18 21:00N 44°52' W 011°37'1 0.7 16.4
2017-Nov-18 20:00N 44°51' W 011°36'0 0.4 16.4
2017-Nov-18 19:00N 44°51' W 011°35'0 0.4 16.4
2017-Nov-18 18:00N 44°51' W 011°35'1 0.7 16.4
2017-Nov-18 17:00N 44°52' W 011°34'0 0.4 16.4
2017-Nov-18 16:00N 44°52' W 011°34'1 0.6 16.4
2017-Nov-18 15:00N 44°52' W 011°34'0 0.0 16.4
2017-Nov-18 14:00N 44°52' W 011°34'1 0.6 16.4
2017-Nov-18 13:00N 44°53' W 011°34'0 0.4 16.4
2017-Nov-18 12:00N 44°53' W 011°34'0 0.0 16.4
2017-Nov-18 11:00N 44°53' W 011°34'0 0.4 16.3
2017-Nov-18 10:00N 44°53' W 011°35'0 0.0 16.3
2017-Nov-18 09:00N 44°53' W 011°35'0 0.0 16.3
2017-Nov-18 08:00N 44°53' W 011°35'1 0.6 16.3
2017-Nov-18 07:00N 44°53' W 011°35'0 0.0 16.3
2017-Nov-18 06:00N 44°53' W 011°35'0 0.4 16.3
2017-Nov-18 05:00N 44°53' W 011°34'0 0.4 16.3
2017-Nov-18 04:00N 44°53' W 011°34'0 0.0 16.3
2017-Nov-18 03:00N 44°53' W 011°34'0 0.4 16.4
2017-Nov-18 02:00N 44°53' W 011°33'0 0.4 16.3
2017-Nov-18 01:00N 44°53' W 011°32'0 0.4 16.2
2017-Nov-18 00:00N 44°53' W 011°32'1 0.7 16.2
2017-Nov-17 23:00N 44°54' W 011°31'0 0.4 16.3
2017-Nov-17 22:00N 44°54' W 011°31'1 0.7 16.2
2017-Nov-17 21:00N 44°55' W 011°30'1 0.7 16.3
2017-Nov-17 20:00N 44°55' W 011°29'1 0.6 16.3
2017-Nov-17 19:00N 44°56' W 011°29'0 0.0 16.3
2017-Nov-17 18:00N 44°56' W 011°29'0 0.4 16.3
2017-Nov-17 17:00N 44°56' W 011°29'0 0.0 16.4
2017-Nov-17 16:00N 44°56' W 011°29'1 0.6 16.4
2017-Nov-17 15:00N 44°55' W 011°29'0 0.4 16.4
2017-Nov-17 14:00N 44°55' W 011°28'1 0.6 16.4
2017-Nov-17 13:00N 44°55' W 011°28'1 0.7 16.4
2017-Nov-17 12:00N 44°54' W 011°28'1 0.7 16.3
2017-Nov-17 11:00N 44°53' W 011°27'1 1.0 16.4
2017-Nov-17 10:00N 44°53' W 011°26'0 0.4 16.4
2017-Nov-17 09:00N 44°53' W 011°25'1 0.9 16.5
2017-Nov-17 08:00N 44°53' W 011°24'1 0.7 16.5
2017-Nov-17 07:00N 44°53' W 011°23'0 0.4 16.6
2017-Nov-17 06:00N 44°53' W 011°23'1 0.7 16.6
2017-Nov-17 05:00N 44°54' W 011°22'0 0.4 16.6
2017-Nov-17 04:00N 44°54' W 011°22'1 0.7 16.6
2017-Nov-17 03:00N 44°55' W 011°22'0 0.0 16.6
2017-Nov-17 02:00N 44°55' W 011°22'1 0.6 16.6
2017-Nov-17 01:00N 44°54' W 011°22'0 0.0 16.6
2017-Nov-17 00:00N 44°54' W 011°22'0 0.0 16.6
2017-Nov-16 23:00N 44°54' W 011°22'1 0.6 16.6
2017-Nov-16 22:00N 44°53' W 011°22'0 0.0 16.6
2017-Nov-16 21:00N 44°53' W 011°22'0 0.4 16.6
2017-Nov-16 20:00N 44°53' W 011°22'1 0.6 16.6
2017-Nov-16 19:00N 44°53' W 011°22'0 0.4 16.6
2017-Nov-16 18:00N 44°53' W 011°21'0 0.4 16.5
2017-Nov-16 17:00N 44°53' W 011°20'0 0.4 16.5
2017-Nov-16 16:00N 44°53' W 011°20'0 0.4 16.4
2017-Nov-16 15:00N 44°53' W 011°19'0 0.0 16.4
2017-Nov-16 14:00N 44°53' W 011°19'1 0.7 16.4
2017-Nov-16 13:00N 44°53' W 011°19'0 0.0 16.3
2017-Nov-16 12:00N 44°53' W 011°19'0 0.0 16.3
2017-Nov-16 11:00N 44°53' W 011°19'1 0.6 16.3
2017-Nov-16 10:00N 44°54' W 011°19'1 0.6 16.3
2017-Nov-16 09:00N 44°55' W 011°19'0 0.4 16.3
2017-Nov-16 08:00N 44°55' W 011°19'0 0.4 16.3
2017-Nov-16 07:00N 44°55' W 011°20'0 0.0 16.3
2017-Nov-16 06:00N 44°55' W 011°20'0 0.4 16.4
2017-Nov-16 05:00N 44°55' W 011°20'1 0.6 16.3
2017-Nov-16 04:00N 44°54' W 011°20'1 0.7 16.3
2017-Nov-16 03:00N 44°53' W 011°21'0 0.0 16.3
2017-Nov-16 02:00N 44°53' W 011°21'1 0.6 16.3
2017-Nov-16 01:00N 44°53' W 011°21'0 0.4 16.2
2017-Nov-16 00:00N 44°53' W 011°20'1 0.6 16.2
2017-Nov-15 23:00N 44°52' W 011°20'0 0.4 16.2
2017-Nov-15 22:00N 44°52' W 011°20'1 0.7 16.2
2017-Nov-15 21:00N 44°53' W 011°19'1 0.6 16.2
2017-Nov-15 20:00N 44°53' W 011°19'0 0.0 16.5
2017-Nov-15 19:00N 44°53' W 011°19'1 0.7 16.6
2017-Nov-15 18:00N 44°54' W 011°20'0 0.4 16.6
2017-Nov-15 17:00N 44°54' W 011°20'0 0.4 16.7
2017-Nov-15 16:00N 44°54' W 011°21'1 0.6 16.7
2017-Nov-15 15:00N 44°53' W 011°21'0 0.4 16.7
2017-Nov-15 14:00N 44°53' W 011°22'1 0.6 16.7
2017-Nov-15 13:00N 44°53' W 011°22'1 0.7 16.7
2017-Nov-15 12:00N 44°52' W 011°22'1 0.7 16.7
2017-Nov-15 11:00N 44°52' W 011°22'1 0.7 16.7
2017-Nov-15 10:00N 44°51' W 011°21'0 0.4 16.7
2017-Nov-15 09:00N 44°51' W 011°20'1 0.7 16.7
2017-Nov-15 08:00N 44°50' W 011°20'0 0.4 16.7
2017-Nov-15 07:00N 44°50' W 011°19'1 0.9 16.6
2017-Nov-15 06:00N 44°50' W 011°18'1 0.7 16.7
2017-Nov-15 05:00N 44°51' W 011°17'1 0.7 16.7
2017-Nov-15 04:00N 44°52' W 011°17'0 0.0 16.7
2017-Nov-15 03:00N 44°52' W 011°17'0 0.4 16.7
2017-Nov-15 02:00N 44°52' W 011°16'0 0.0 16.7
2017-Nov-15 01:00N 44°52' W 011°16'0 0.4 16.7
2017-Nov-15 00:00N 44°52' W 011°17'0 0.0 16.7
2017-Nov-14 23:00N 44°52' W 011°17'0 0.4 16.7
2017-Nov-14 22:00N 44°52' W 011°17'1 0.6 16.7
2017-Nov-14 21:00N 44°51' W 011°17'0 0.4 16.7
2017-Nov-14 20:00N 44°51' W 011°17'1 0.7 16.7
2017-Nov-14 19:00N 44°50' W 011°16'0 0.0 16.7
2017-Nov-14 18:00N 44°50' W 011°16'1 0.7 16.7
2017-Nov-14 17:00N 44°50' W 011°16'0 0.4 16.7
2017-Nov-14 16:00N 44°50' W 011°15'0 0.4 16.7
2017-Nov-14 15:00N 44°50' W 011°14'0 0.0 16.7
2017-Nov-14 14:00N 44°50' W 011°14'0 0.0 16.7
2017-Nov-14 13:00N 44°50' W 011°14'0 0.4 16.8
2017-Nov-14 12:00N 44°50' W 011°14'0 0.0 16.8
2017-Nov-14 11:00N 44°50' W 011°14'1 0.6 16.8
2017-Nov-14 10:00N 44°49' W 011°14'0 0.4 16.8
2017-Nov-14 09:00N 44°49' W 011°14'1 0.7 16.8
2017-Nov-14 08:00N 44°49' W 011°14'0 0.0 16.7
2017-Nov-14 07:00N 44°49' W 011°14'0 0.4 16.7
2017-Nov-14 06:00N 44°49' W 011°13'0 0.0 16.7
2017-Nov-14 05:00N 44°49' W 011°13'1 0.6 16.7
2017-Nov-14 04:00N 44°48' W 011°13'0 0.0 16.7
2017-Nov-14 03:00N 44°48' W 011°13'0 0.0 16.7
2017-Nov-14 02:00N 44°48' W 011°13'1 0.6 16.7
2017-Nov-14 01:00N 44°47' W 011°13'0 0.0 16.7
2017-Nov-14 00:00N 44°47' W 011°13'1 0.6 16.7
2017-Nov-13 23:00N 44°47' W 011°13'1 0.7 16.7
2017-Nov-13 22:00N 44°46' W 011°13'0 0.4 16.7
2017-Nov-13 21:00N 44°46' W 011°12'1 0.7 16.7
2017-Nov-13 20:00N 44°46' W 011°11'0 0.4 16.7
2017-Nov-13 19:00N 44°46' W 011°11'1 0.9 16.7
2017-Nov-13 18:00N 44°46' W 011°10'0 0.4 16.7
2017-Nov-13 17:00N 44°46' W 011°09'0 0.4 16.7
2017-Nov-13 16:00N 44°46' W 011°08'1 0.6 16.7
2017-Nov-13 15:00N 44°46' W 011°08'0 0.0 16.8
2017-Nov-13 14:00N 44°46' W 011°08'0 0.4 16.8
2017-Nov-13 13:00N 44°46' W 011°09'1 0.6 16.8
2017-Nov-13 12:00N 44°46' W 011°09'1 0.7 16.8
2017-Nov-13 11:00N 44°45' W 011°10'1 0.6 16.7
2017-Nov-13 10:00N 44°44' W 011°10'1 0.6 16.8
2017-Nov-13 09:00N 44°44' W 011°10'1 0.7 16.8
2017-Nov-13 08:00N 44°43' W 011°09'1 1.0 16.8
2017-Nov-13 07:00N 44°43' W 011°08'1 0.7 16.8
2017-Nov-13 06:00N 44°42' W 011°07'1 0.7 16.8
2017-Nov-13 05:00N 44°41' W 011°07'1 0.9 16.8
2017-Nov-13 04:00N 44°41' W 011°05'0 0.4 16.8
2017-Nov-13 03:00N 44°41' W 011°05'1 1.0 16.8
2017-Nov-13 02:00N 44°42' W 011°04'0 0.0 16.8
2017-Nov-13 01:00N 44°42' W 011°04'0 0.4 16.8
2017-Nov-13 00:00N 44°42' W 011°03'0 0.0 16.8
2017-Nov-12 23:00N 44°42' W 011°03'0 0.0 16.8
2017-Nov-12 22:00N 44°42' W 011°03'0 0.0 16.9
2017-Nov-12 21:00N 44°42' W 011°03'1 0.6 16.9
2017-Nov-12 20:00N 44°41' W 011°03'0 0.0 16.9
2017-Nov-12 19:00N 44°41' W 011°03'0 0.0 16.9
2017-Nov-12 18:00N 44°41' W 011°03'1 0.7 16.8
2017-Nov-12 17:00N 44°41' W 011°02'0 0.0 16.9
2017-Nov-12 16:00N 44°41' W 011°02'0 0.0 16.9
2017-Nov-12 15:00N 44°41' W 011°02'0 0.0 16.9
2017-Nov-12 14:00N 44°41' W 011°02'   16.9
Track history (hours):
 
Tides and Currents Weather Stations Pressure Air Temp Water Temp Dewpoint Dewpoint Depression Visibility Wind Speed Wind Dir Waves Ship Positions

Min Dong Yu62558

Last reported at 2017-Nov-22 14:00 UTC. Time now 2017-Nov-22 15:06 UTC.
Position N 45°14' W 011°12'.

Length 32 m.

Type: Fishing. MMSI: 412446472.

Water temperature 16.0 ° C

Date/timePositionNaut miles runAvg speedWind from/ knotsBaromVisibWave heightAir tempDewpointWater temp
2017-Nov-22 14:00N 45°14' W 011°12'0 0.4 16.0
2017-Nov-22 13:00N 45°14' W 011°13'1 1.0 16.0
2017-Nov-22 12:00N 45°13' W 011°14'1 0.7 16.0
2017-Nov-22 11:00N 45°13' W 011°14'1 0.7 16.1
2017-Nov-22 10:00N 45°12' W 011°15'1 0.8 16.1
2017-Nov-22 09:00N 45°12' W 011°16'1 0.7 16.1
2017-Nov-22 08:00N 45°11' W 011°17'1 1.3 16.1
2017-Nov-22 07:00N 45°10' W 011°17'1 0.7 16.1
2017-Nov-22 06:00N 45°10' W 011°18'1 1.5 16.0
2017-Nov-22 05:00N 45°08' W 011°19'1 0.7 16.1
2017-Nov-22 04:00N 45°08' W 011°20'1 1.2 16.1
2017-Nov-22 03:00N 45°07' W 011°20'1 1.2 16.2
2017-Nov-22 02:00N 45°05' W 011°20'1 0.7 16.3
2017-Nov-22 01:00N 45°05' W 011°19'1 0.7 16.3
2017-Nov-22 00:00N 45°04' W 011°19'1 0.8 16.2
2017-Nov-21 23:00N 45°04' W 011°17'0 0.0 16.1
2017-Nov-21 22:00N 45°04' W 011°17'0 0.0 16.1
2017-Nov-21 21:00N 45°04' W 011°17'0 0.4 16.1
2017-Nov-21 20:00N 45°04' W 011°18'0 0.4 16.1
2017-Nov-21 19:00N 45°04' W 011°19'1 1.0 16.1
2017-Nov-21 18:00N 45°04' W 011°20'1 1.0 16.1
2017-Nov-21 17:00N 45°03' W 011°21'1 1.3 16.1
2017-Nov-21 16:00N 45°02' W 011°22'1 1.5 16.1
2017-Nov-21 15:00N 45°01' W 011°23'1 1.3 16.2
2017-Nov-21 14:00N 44°59' W 011°23'1 0.6 16.2
2017-Nov-21 13:00N 44°59' W 011°23'1 0.7 16.2
2017-Nov-21 12:00N 44°58' W 011°23'1 0.7 16.2
2017-Nov-21 11:00N 44°58' W 011°22'1 0.6 16.2
2017-Nov-21 10:00N 44°58' W 011°22'0 0.0 16.2
2017-Nov-21 09:00N 44°58' W 011°22'1 0.7 16.2
2017-Nov-21 08:00N 44°59' W 011°23'0 0.4 16.2
2017-Nov-21 07:00N 44°59' W 011°23'0 0.4 16.2
2017-Nov-21 06:00N 44°59' W 011°24'1 1.0 16.1
2017-Nov-21 05:00N 44°58' W 011°25'1 0.7 16.1
2017-Nov-21 04:00N 44°58' W 011°26'1 1.0 16.1
2017-Nov-21 03:00N 44°57' W 011°27'1 0.7 16.1
2017-Nov-21 02:00N 44°56' W 011°28'1 0.7 16.1
2017-Nov-21 01:00N 44°56' W 011°28'1 1.2 16.1
2017-Nov-21 00:00N 44°55' W 011°28'1 0.6 16.1
2017-Nov-20 23:00N 44°54' W 011°28'1 0.6 16.1
2017-Nov-20 22:00N 44°53' W 011°28'0 0.0 16.1
2017-Nov-20 21:00N 44°53' W 011°28'1 0.6 16.1
2017-Nov-20 20:00N 44°53' W 011°28'0 0.0 16.1
2017-Nov-20 19:00N 44°53' W 011°28'0 0.0 16.1
2017-Nov-20 18:00N 44°53' W 011°28'0 0.4 16.1
2017-Nov-20 17:00N 44°53' W 011°29'0 0.4 16.2
2017-Nov-20 16:00N 44°53' W 011°29'1 0.9 16.2
2017-Nov-20 15:00N 44°53' W 011°31'1 0.9 16.0
2017-Nov-20 14:00N 44°53' W 011°32'0 0.4 16.0
2017-Nov-20 13:00N 44°53' W 011°32'1 1.0 16.0
2017-Nov-20 12:00N 44°52' W 011°34'0 0.4 16.0
2017-Nov-20 11:00N 44°52' W 011°34'0 0.4 16.0
2017-Nov-20 10:00N 44°52' W 011°35'0 0.0 16.1
2017-Nov-20 09:00N 44°52' W 011°35'0 0.0 16.1
2017-Nov-20 08:00N 44°52' W 011°35'1 0.6 16.1
2017-Nov-20 07:00N 44°52' W 011°35'0 0.4 16.1
2017-Nov-20 06:00N 44°52' W 011°35'0 0.0 16.1
2017-Nov-20 05:00N 44°52' W 011°35'0 0.0 16.1
2017-Nov-20 04:00N 44°52' W 011°35'0 0.0 16.1
2017-Nov-20 03:00N 44°52' W 011°35'0 0.0 16.1
2017-Nov-20 02:00N 44°52' W 011°35'0 0.0 16.1
2017-Nov-20 01:00N 44°52' W 011°35'0 0.0 16.1
2017-Nov-20 00:00N 44°52' W 011°35'0 0.0 16.1
2017-Nov-19 23:00N 44°52' W 011°35'0 0.0 16.2
2017-Nov-19 22:00N 44°52' W 011°35'1 0.6 16.2
2017-Nov-19 21:00N 44°52' W 011°35'1 0.6 16.2
2017-Nov-19 20:00N 44°53' W 011°35'0 0.0 16.2
2017-Nov-19 19:00N 44°53' W 011°35'1 0.7 16.2
2017-Nov-19 18:00N 44°53' W 011°36'0 0.0 16.2
2017-Nov-19 17:00N 44°53' W 011°36'1 0.7 16.2
2017-Nov-19 16:00N 44°53' W 011°37'0 0.4 16.3
2017-Nov-19 15:00N 44°53' W 011°37'1 0.6 16.3
2017-Nov-19 14:00N 44°52' W 011°37'0 0.0 16.3
2017-Nov-19 13:00N 44°52' W 011°37'1 0.6 16.3
2017-Nov-19 12:00N 44°52' W 011°37'1 0.6 16.3
2017-Nov-19 11:00N 44°51' W 011°37'0 0.4 16.3
2017-Nov-19 10:00N 44°51' W 011°37'1 0.9 16.3
2017-Nov-19 09:00N 44°51' W 011°35'1 0.7 16.3
2017-Nov-19 08:00N 44°52' W 011°35'0 0.0 16.3
2017-Nov-19 07:00N 44°52' W 011°35'1 0.7 16.3
2017-Nov-19 06:00N 44°52' W 011°34'1 0.6 16.3
2017-Nov-19 05:00N 44°53' W 011°34'0 0.4 16.3
2017-Nov-19 04:00N 44°53' W 011°35'1 0.6 16.3
2017-Nov-19 03:00N 44°53' W 011°35'0 0.4 16.3
2017-Nov-19 02:00N 44°53' W 011°35'1 0.7 16.3
2017-Nov-19 01:00N 44°53' W 011°36'0 0.4 16.3
2017-Nov-19 00:00N 44°53' W 011°37'1 0.7 16.3
2017-Nov-18 23:00N 44°52' W 011°37'1 0.6 16.4
2017-Nov-18 22:00N 44°52' W 011°37'0 0.4 16.4
2017-Nov-18 21:00N 44°52' W 011°37'1 0.7 16.4
2017-Nov-18 20:00N 44°51' W 011°36'0 0.4 16.4
2017-Nov-18 19:00N 44°51' W 011°35'0 0.4 16.4
2017-Nov-18 18:00N 44°51' W 011°35'1 0.7 16.4
2017-Nov-18 17:00N 44°52' W 011°34'0 0.4 16.4
2017-Nov-18 16:00N 44°52' W 011°34'1 0.6 16.4
2017-Nov-18 15:00N 44°52' W 011°34'0 0.0 16.4
2017-Nov-18 14:00N 44°52' W 011°34'1 0.6 16.4
2017-Nov-18 13:00N 44°53' W 011°34'0 0.4 16.4
2017-Nov-18 12:00N 44°53' W 011°34'0 0.0 16.4
2017-Nov-18 11:00N 44°53' W 011°34'0 0.4 16.3
2017-Nov-18 10:00N 44°53' W 011°35'0 0.0 16.3
2017-Nov-18 09:00N 44°53' W 011°35'0 0.0 16.3
2017-Nov-18 08:00N 44°53' W 011°35'1 0.6 16.3
2017-Nov-18 07:00N 44°53' W 011°35'0 0.0 16.3
2017-Nov-18 06:00N 44°53' W 011°35'0 0.4 16.3
2017-Nov-18 05:00N 44°53' W 011°34'0 0.4 16.3
2017-Nov-18 04:00N 44°53' W 011°34'0 0.0 16.3
2017-Nov-18 03:00N 44°53' W 011°34'0 0.4 16.4
2017-Nov-18 02:00N 44°53' W 011°33'0 0.4 16.3
2017-Nov-18 01:00N 44°53' W 011°32'0 0.4 16.2
2017-Nov-18 00:00N 44°53' W 011°32'1 0.7 16.2
2017-Nov-17 23:00N 44°54' W 011°31'0 0.4 16.3
2017-Nov-17 22:00N 44°54' W 011°31'1 0.7 16.2
2017-Nov-17 21:00N 44°55' W 011°30'1 0.7 16.3
2017-Nov-17 20:00N 44°55' W 011°29'1 0.6 16.3
2017-Nov-17 19:00N 44°56' W 011°29'0 0.0 16.3
2017-Nov-17 18:00N 44°56' W 011°29'0 0.4 16.3
2017-Nov-17 17:00N 44°56' W 011°29'0 0.0 16.4
2017-Nov-17 16:00N 44°56' W 011°29'1 0.6 16.4
2017-Nov-17 15:00N 44°55' W 011°29'0 0.4 16.4
2017-Nov-17 14:00N 44°55' W 011°28'1 0.6 16.4
2017-Nov-17 13:00N 44°55' W 011°28'1 0.7 16.4
2017-Nov-17 12:00N 44°54' W 011°28'1 0.7 16.3
2017-Nov-17 11:00N 44°53' W 011°27'1 1.0 16.4
2017-Nov-17 10:00N 44°53' W 011°26'0 0.4 16.4
2017-Nov-17 09:00N 44°53' W 011°25'1 0.9 16.5
2017-Nov-17 08:00N 44°53' W 011°24'1 0.7 16.5
2017-Nov-17 07:00N 44°53' W 011°23'0 0.4 16.6
2017-Nov-17 06:00N 44°53' W 011°23'1 0.7 16.6
2017-Nov-17 05:00N 44°54' W 011°22'0 0.4 16.6
2017-Nov-17 04:00N 44°54' W 011°22'1 0.7 16.6
2017-Nov-17 03:00N 44°55' W 011°22'0 0.0 16.6
2017-Nov-17 02:00N 44°55' W 011°22'1 0.6 16.6
2017-Nov-17 01:00N 44°54' W 011°22'0 0.0 16.6
2017-Nov-17 00:00N 44°54' W 011°22'0 0.0 16.6
2017-Nov-16 23:00N 44°54' W 011°22'1 0.6 16.6
2017-Nov-16 22:00N 44°53' W 011°22'0 0.0 16.6
2017-Nov-16 21:00N 44°53' W 011°22'0 0.4 16.6
2017-Nov-16 20:00N 44°53' W 011°22'1 0.6 16.6
2017-Nov-16 19:00N 44°53' W 011°22'0 0.4 16.6
2017-Nov-16 18:00N 44°53' W 011°21'0 0.4 16.5
2017-Nov-16 17:00N 44°53' W 011°20'0 0.4 16.5
2017-Nov-16 16:00N 44°53' W 011°20'0 0.4 16.4
2017-Nov-16 15:00N 44°53' W 011°19'0 0.0 16.4
2017-Nov-16 14:00N 44°53' W 011°19'1 0.7 16.4
2017-Nov-16 13:00N 44°53' W 011°19'0 0.0 16.3
2017-Nov-16 12:00N 44°53' W 011°19'0 0.0 16.3
2017-Nov-16 11:00N 44°53' W 011°19'1 0.6 16.3
2017-Nov-16 10:00N 44°54' W 011°19'1 0.6 16.3
2017-Nov-16 09:00N 44°55' W 011°19'0 0.4 16.3
2017-Nov-16 08:00N 44°55' W 011°19'0 0.4 16.3
2017-Nov-16 07:00N 44°55' W 011°20'0 0.0 16.3
2017-Nov-16 06:00N 44°55' W 011°20'0 0.4 16.4
2017-Nov-16 05:00N 44°55' W 011°20'1 0.6 16.3
2017-Nov-16 04:00N 44°54' W 011°20'1 0.7 16.3
2017-Nov-16 03:00N 44°53' W 011°21'0 0.0 16.3
2017-Nov-16 02:00N 44°53' W 011°21'1 0.6 16.3
2017-Nov-16 01:00N 44°53' W 011°21'0 0.4 16.2
2017-Nov-16 00:00N 44°53' W 011°20'1 0.6 16.2
2017-Nov-15 23:00N 44°52' W 011°20'0 0.4 16.2
2017-Nov-15 22:00N 44°52' W 011°20'1 0.7 16.2
2017-Nov-15 21:00N 44°53' W 011°19'1 0.6 16.2
2017-Nov-15 20:00N 44°53' W 011°19'0 0.0 16.5
2017-Nov-15 19:00N 44°53' W 011°19'1 0.7 16.6
2017-Nov-15 18:00N 44°54' W 011°20'0 0.4 16.6
2017-Nov-15 17:00N 44°54' W 011°20'0 0.4 16.7
2017-Nov-15 16:00N 44°54' W 011°21'1 0.6 16.7
2017-Nov-15 15:00N 44°53' W 011°21'0 0.4 16.7
2017-Nov-15 14:00N 44°53' W 011°22'1 0.6 16.7
2017-Nov-15 13:00N 44°53' W 011°22'1 0.7 16.7
2017-Nov-15 12:00N 44°52' W 011°22'1 0.7 16.7
2017-Nov-15 11:00N 44°52' W 011°22'1 0.7 16.7
2017-Nov-15 10:00N 44°51' W 011°21'0 0.4 16.7
2017-Nov-15 09:00N 44°51' W 011°20'1 0.7 16.7
2017-Nov-15 08:00N 44°50' W 011°20'0 0.4 16.7
2017-Nov-15 07:00N 44°50' W 011°19'1 0.9 16.6
2017-Nov-15 06:00N 44°50' W 011°18'1 0.7 16.7
2017-Nov-15 05:00N 44°51' W 011°17'1 0.7 16.7
2017-Nov-15 04:00N 44°52' W 011°17'0 0.0 16.7
2017-Nov-15 03:00N 44°52' W 011°17'0 0.4 16.7
2017-Nov-15 02:00N 44°52' W 011°16'0 0.0 16.7
2017-Nov-15 01:00N 44°52' W 011°16'0 0.4 16.7
2017-Nov-15 00:00N 44°52' W 011°17'0 0.0 16.7
2017-Nov-14 23:00N 44°52' W 011°17'0 0.4 16.7
2017-Nov-14 22:00N 44°52' W 011°17'1 0.6 16.7
2017-Nov-14 21:00N 44°51' W 011°17'0 0.4 16.7
2017-Nov-14 20:00N 44°51' W 011°17'1 0.7 16.7
2017-Nov-14 19:00N 44°50' W 011°16'0 0.0 16.7
2017-Nov-14 18:00N 44°50' W 011°16'1 0.7 16.7
2017-Nov-14 17:00N 44°50' W 011°16'0 0.4 16.7
2017-Nov-14 16:00N 44°50' W 011°15'0 0.4 16.7
2017-Nov-14 15:00N 44°50' W 011°14'0 0.0 16.7
2017-Nov-14 14:00N 44°50' W 011°14'0 0.0 16.7
2017-Nov-14 13:00N 44°50' W 011°14'0 0.4 16.8
2017-Nov-14 12:00N 44°50' W 011°14'0 0.0 16.8
2017-Nov-14 11:00N 44°50' W 011°14'1 0.6 16.8
2017-Nov-14 10:00N 44°49' W 011°14'0 0.4 16.8
2017-Nov-14 09:00N 44°49' W 011°14'1 0.7 16.8
2017-Nov-14 08:00N 44°49' W 011°14'0 0.0 16.7
2017-Nov-14 07:00N 44°49' W 011°14'0 0.4 16.7
2017-Nov-14 06:00N 44°49' W 011°13'0 0.0 16.7
2017-Nov-14 05:00N 44°49' W 011°13'1 0.6 16.7
2017-Nov-14 04:00N 44°48' W 011°13'0 0.0 16.7
2017-Nov-14 03:00N 44°48' W 011°13'0 0.0 16.7
2017-Nov-14 02:00N 44°48' W 011°13'1 0.6 16.7
2017-Nov-14 01:00N 44°47' W 011°13'0 0.0 16.7
2017-Nov-14 00:00N 44°47' W 011°13'1 0.6 16.7
2017-Nov-13 23:00N 44°47' W 011°13'1 0.7 16.7
2017-Nov-13 22:00N 44°46' W 011°13'0 0.4 16.7
2017-Nov-13 21:00N 44°46' W 011°12'1 0.7 16.7
2017-Nov-13 20:00N 44°46' W 011°11'0 0.4 16.7
2017-Nov-13 19:00N 44°46' W 011°11'1 0.9 16.7
2017-Nov-13 18:00N 44°46' W 011°10'0 0.4 16.7
2017-Nov-13 17:00N 44°46' W 011°09'0 0.4 16.7
2017-Nov-13 16:00N 44°46' W 011°08'1 0.6 16.7
2017-Nov-13 15:00N 44°46' W 011°08'0 0.0 16.8
2017-Nov-13 14:00N 44°46' W 011°08'0 0.4 16.8
2017-Nov-13 13:00N 44°46' W 011°09'1 0.6 16.8
2017-Nov-13 12:00N 44°46' W 011°09'1 0.7 16.8
2017-Nov-13 11:00N 44°45' W 011°10'1 0.6 16.7
2017-Nov-13 10:00N 44°44' W 011°10'1 0.6 16.8
2017-Nov-13 09:00N 44°44' W 011°10'1 0.7 16.8
2017-Nov-13 08:00N 44°43' W 011°09'1 1.0 16.8
2017-Nov-13 07:00N 44°43' W 011°08'1 0.7 16.8
2017-Nov-13 06:00N 44°42' W 011°07'1 0.7 16.8
2017-Nov-13 05:00N 44°41' W 011°07'1 0.9 16.8
2017-Nov-13 04:00N 44°41' W 011°05'0 0.4 16.8
2017-Nov-13 03:00N 44°41' W 011°05'1 1.0 16.8
2017-Nov-13 02:00N 44°42' W 011°04'0 0.0 16.8
2017-Nov-13 01:00N 44°42' W 011°04'0 0.4 16.8
2017-Nov-13 00:00N 44°42' W 011°03'0 0.0 16.8
2017-Nov-12 23:00N 44°42' W 011°03'0 0.0 16.8
2017-Nov-12 22:00N 44°42' W 011°03'0 0.0 16.9
2017-Nov-12 21:00N 44°42' W 011°03'1 0.6 16.9
2017-Nov-12 20:00N 44°41' W 011°03'0 0.0 16.9
2017-Nov-12 19:00N 44°41' W 011°03'0 0.0 16.9
2017-Nov-12 18:00N 44°41' W 011°03'1 0.7 16.8
2017-Nov-12 17:00N 44°41' W 011°02'0 0.0 16.9
2017-Nov-12 16:00N 44°41' W 011°02'0 0.0 16.9
2017-Nov-12 15:00N 44°41' W 011°02'0 0.0 16.9
2017-Nov-12 14:00N 44°41' W 011°02'   16.9

Dump ship's entire track history